createdAt,value
2023-03-20T00:01:58.443Z,85.44
2023-03-20T00:04:26.001Z,85.81
2023-03-20T00:06:52.495Z,86.08
2023-03-20T00:09:18.926Z,86.01
2023-03-20T00:11:50.474Z,86.29
2023-03-20T00:14:19.181Z,86.19
2023-03-20T00:16:47.489Z,86.20
2023-03-20T00:19:19.586Z,86.11
2023-03-20T00:21:47.923Z,86.36
2023-03-20T00:24:15.321Z,86.33
2023-03-20T00:26:43.269Z,86.22
2023-03-20T00:29:22.757Z,85.75
2023-03-20T00:31:49.617Z,85.09
2023-03-20T00:34:17.678Z,85.14
2023-03-20T00:36:44.108Z,85.16
2023-03-20T00:39:10.850Z,85.56
2023-03-20T00:42:01.675Z,85.93
2023-03-20T00:44:34.658Z,86.16
2023-03-20T00:47:03.662Z,86.46
2023-03-20T00:49:33.264Z,86.46
2023-03-20T00:52:01.293Z,86.45
2023-03-20T00:54:28.137Z,86.67
2023-03-20T00:57:16.188Z,86.73
2023-03-20T00:59:51.935Z,87.01
2023-03-20T01:02:18.503Z,87.13
2023-03-20T01:04:44.960Z,87.68
2023-03-20T01:07:14.436Z,87.84
2023-03-20T01:09:41.650Z,88.29
2023-03-20T01:12:10.963Z,88.43
2023-03-20T01:14:37.377Z,88.77
2023-03-20T01:17:03.850Z,88.82
2023-03-20T01:19:30.363Z,88.99
2023-03-20T01:21:56.790Z,88.95
2023-03-20T01:24:23.236Z,89.03
2023-03-20T01:26:51.683Z,89.11
2023-03-20T01:29:24.020Z,89.09
2023-03-20T01:31:51.637Z,89.39
2023-03-20T01:34:18.689Z,89.25
2023-03-20T01:36:51.877Z,88.99
2023-03-20T01:39:21.623Z,88.88
2023-03-20T01:41:48.542Z,88.97
2023-03-20T01:44:23.769Z,88.75
2023-03-20T01:46:52.604Z,88.90
2023-03-20T01:49:18.923Z,88.60
2023-03-20T01:51:46.056Z,88.70
2023-03-20T01:54:19.135Z,88.62
2023-03-20T01:57:08.494Z,88.46
2023-03-20T01:59:34.819Z,88.85
2023-03-20T02:02:01.506Z,88.81
2023-03-20T02:04:34.747Z,88.99
2023-03-20T02:07:01.353Z,89.17
2023-03-20T02:09:27.809Z,89.54
2023-03-20T02:11:54.682Z,89.86
2023-03-20T02:14:22.228Z,89.93
2023-03-20T02:16:48.814Z,90.01
2023-03-20T02:19:23.920Z,90.33
2023-03-20T02:22:23.223Z,90.62
2023-03-20T02:24:54.969Z,91.00
2023-03-20T02:27:51.384Z,90.95
2023-03-20T02:30:43.058Z,91.11
2023-03-20T02:33:33.911Z,91.22
2023-03-20T02:36:33.694Z,90.94
2023-03-20T02:39:26.507Z,91.09
2023-03-20T02:42:13.814Z,91.16
2023-03-20T02:45:13.510Z,90.98
2023-03-20T02:47:51.322Z,91.14
2023-03-20T02:50:23.717Z,91.12
2023-03-20T02:53:10.546Z,91.25
2023-03-20T02:55:46.986Z,91.23
2023-03-20T02:58:26.603Z,91.42
2023-03-20T03:01:23.268Z,91.45
2023-03-20T03:04:22.390Z,91.41
2023-03-20T03:06:51.701Z,91.81
2023-03-20T03:09:33.433Z,91.52
2023-03-20T03:12:03.463Z,91.54
2023-03-20T03:14:36.006Z,91.56
2023-03-20T03:17:04.403Z,91.68
2023-03-20T03:19:32.084Z,91.75
2023-03-20T03:21:58.480Z,91.51
2023-03-20T03:24:41.436Z,91.50
2023-03-20T03:27:14.967Z,91.19
2023-03-20T03:29:42.304Z,91.56
2023-03-20T03:32:31.932Z,91.56
2023-03-20T03:34:59.099Z,91.69
2023-03-20T03:37:41.396Z,91.64
2023-03-20T03:40:33.861Z,91.68
2023-03-20T03:43:11.619Z,91.68
2023-03-20T03:45:55.792Z,92.15
2023-03-20T03:48:31.200Z,92.03
2023-03-20T03:51:01.601Z,92.29
2023-03-20T03:53:32.549Z,92.71
2023-03-20T03:56:02.364Z,93.18
2023-03-20T03:58:42.051Z,93.70
2023-03-20T04:01:13.512Z,94.45
2023-03-20T04:03:43.718Z,94.94
2023-03-20T04:06:12.442Z,95.73
2023-03-20T04:08:41.893Z,95.36
2023-03-20T04:11:19.376Z,95.53
2023-03-20T04:13:50.569Z,95.04
2023-03-20T04:16:18.314Z,94.94
2023-03-20T04:18:45.228Z,95.14
2023-03-20T04:21:12.124Z,95.12
2023-03-20T04:23:38.534Z,95.35
2023-03-20T04:26:06.016Z,94.80
2023-03-20T04:28:32.416Z,94.91
2023-03-20T04:31:00.831Z,94.75
2023-03-20T04:33:28.644Z,94.80
2023-03-20T04:35:56.630Z,94.38
2023-03-20T04:38:24.066Z,94.22
2023-03-20T04:40:50.588Z,93.75
2023-03-20T04:43:17.338Z,93.24
2023-03-20T04:45:43.794Z,93.24
2023-03-20T04:48:10.598Z,92.98
2023-03-20T04:50:37.080Z,93.12
2023-03-20T04:53:03.531Z,93.06
2023-03-20T04:55:29.935Z,92.59
2023-03-20T04:57:56.424Z,92.64
2023-03-20T05:00:22.938Z,92.50
2023-03-20T05:02:49.439Z,92.63
2023-03-20T05:05:15.888Z,92.93
2023-03-20T05:07:42.307Z,92.80
2023-03-20T05:10:09.122Z,93.16
2023-03-20T05:12:35.827Z,92.94
2023-03-20T05:15:02.248Z,92.96
2023-03-20T05:17:28.677Z,93.02
2023-03-20T05:19:55.092Z,93.31
2023-03-20T05:22:21.496Z,93.68
2023-03-20T05:24:47.976Z,93.47
2023-03-20T05:27:14.397Z,93.52
2023-03-20T05:29:40.972Z,93.50
2023-03-20T05:32:07.427Z,93.46
2023-03-20T05:34:33.866Z,93.88
2023-03-20T05:37:00.454Z,93.82
2023-03-20T05:39:26.872Z,93.88
2023-03-20T05:41:53.506Z,93.88
2023-03-20T05:44:19.918Z,93.74
2023-03-20T05:46:46.355Z,93.68
2023-03-20T05:49:12.763Z,93.61
2023-03-20T05:51:39.195Z,93.79
2023-03-20T05:54:05.746Z,93.29
2023-03-20T05:56:32.225Z,93.24
2023-03-20T05:58:58.664Z,93.20
2023-03-20T06:01:25.201Z,92.94
2023-03-20T06:03:51.760Z,92.92
2023-03-20T06:06:18.261Z,92.33
2023-03-20T06:08:44.661Z,92.32
2023-03-20T06:11:11.748Z,92.13
2023-03-20T06:13:38.174Z,92.12
2023-03-20T06:16:04.990Z,91.87
2023-03-20T06:18:31.614Z,91.03
2023-03-20T06:20:58.191Z,90.78
2023-03-20T06:23:24.647Z,90.15
2023-03-20T06:25:51.254Z,89.90
2023-03-20T06:28:17.676Z,89.34
2023-03-20T06:30:44.642Z,88.95
2023-03-20T06:33:11.367Z,88.49
2023-03-20T06:35:38.563Z,87.90
2023-03-20T06:38:05.365Z,87.18
2023-03-20T06:40:31.933Z,86.67
2023-03-20T06:42:58.401Z,85.87
2023-03-20T06:45:24.877Z,85.31
2023-03-20T06:47:51.398Z,85.15
2023-03-20T06:50:17.909Z,84.50
2023-03-20T06:52:44.894Z,84.01
2023-03-20T06:55:11.504Z,82.98
2023-03-20T06:57:38.668Z,81.89
2023-03-20T07:00:06.458Z,81.30
2023-03-20T07:02:33.410Z,80.57
2023-03-20T07:04:59.988Z,80.20
2023-03-20T07:07:27.220Z,79.58
2023-03-20T07:09:53.751Z,79.24
2023-03-20T07:12:20.421Z,78.69
2023-03-20T07:14:46.968Z,78.39
2023-03-20T07:17:13.564Z,78.30
2023-03-20T07:19:40.158Z,78.28
2023-03-20T07:22:08.596Z,78.27
2023-03-20T07:24:35.244Z,77.71
2023-03-20T07:27:01.792Z,77.96
2023-03-20T07:29:28.257Z,77.95
2023-03-20T07:31:54.834Z,77.69
2023-03-20T07:34:21.307Z,77.35
2023-03-20T07:36:47.809Z,76.60
2023-03-20T07:39:14.432Z,75.88
2023-03-20T07:41:40.929Z,75.87
2023-03-20T07:44:08.430Z,75.38
2023-03-20T07:46:34.961Z,74.99
2023-03-20T07:49:01.457Z,74.85
2023-03-20T07:51:27.933Z,74.92
2023-03-20T07:53:55.569Z,74.92
2023-03-20T07:56:22.377Z,75.14
2023-03-20T07:58:48.829Z,74.41
2023-03-20T08:01:15.395Z,74.14
2023-03-20T08:03:41.946Z,74.03
2023-03-20T08:06:09.760Z,73.43
2023-03-20T08:08:36.591Z,73.09
2023-03-20T08:11:03.103Z,72.99
2023-03-20T08:13:29.594Z,72.56
2023-03-20T08:15:56.043Z,72.58
2023-03-20T08:18:22.628Z,72.77
2023-03-20T08:20:50.285Z,72.74
2023-03-20T08:23:20.098Z,72.38
2023-03-20T08:25:50.663Z,72.22
2023-03-20T08:28:17.357Z,72.47
2023-03-20T08:30:44.150Z,72.42
2023-03-20T08:33:11.192Z,71.60
2023-03-20T08:35:38.043Z,71.64
2023-03-20T08:38:04.823Z,71.44
2023-03-20T08:40:31.436Z,71.24
2023-03-20T08:42:57.980Z,71.20
2023-03-20T08:45:26.220Z,70.44
2023-03-20T08:47:53.130Z,70.35
2023-03-20T08:50:19.700Z,70.93
2023-03-20T08:52:47.140Z,70.94
2023-03-20T08:55:15.870Z,70.98
2023-03-20T08:57:42.648Z,70.73
2023-03-20T09:00:12.106Z,70.61
2023-03-20T09:02:38.740Z,71.05
2023-03-20T09:05:06.075Z,71.07
2023-03-20T09:07:32.526Z,71.17
2023-03-20T09:09:59.047Z,71.35
2023-03-20T09:12:25.621Z,71.01
2023-03-20T09:14:52.148Z,70.51
2023-03-20T09:17:18.812Z,70.04
2023-03-20T09:19:45.479Z,70.09
2023-03-20T09:22:13.682Z,69.96
2023-03-20T09:24:40.176Z,69.39
2023-03-20T09:27:06.815Z,69.37
2023-03-20T09:29:33.270Z,69.53
2023-03-20T09:31:59.772Z,68.97
2023-03-20T09:34:26.255Z,69.20
2023-03-20T09:36:53.048Z,69.31
2023-03-20T09:39:19.533Z,69.29
2023-03-20T09:41:57.091Z,69.44
2023-03-20T09:44:59.618Z,69.33
2023-03-20T09:48:18.860Z,69.40
2023-03-20T09:51:22.980Z,69.64
2023-03-20T09:54:01.314Z,70.07
2023-03-20T09:56:29.974Z,70.46
2023-03-20T09:59:01.907Z,70.61
2023-03-20T10:01:39.051Z,70.71
2023-03-20T10:04:10.475Z,70.41
2023-03-20T10:06:37.196Z,69.95
2023-03-20T10:09:12.532Z,70.26
2023-03-20T10:11:41.934Z,70.34
2023-03-20T10:14:35.698Z,70.26
2023-03-20T10:17:31.602Z,70.23
2023-03-20T10:20:01.165Z,69.90
2023-03-20T10:22:36.652Z,69.95
2023-03-20T10:25:08.882Z,70.28
2023-03-20T10:27:41.211Z,69.86
2023-03-20T10:30:26.534Z,70.09
2023-03-20T10:33:11.843Z,69.96
2023-03-20T10:35:43.795Z,70.08
2023-03-20T10:38:37.575Z,69.78
2023-03-20T10:41:05.220Z,70.42
2023-03-20T10:43:38.186Z,70.07
2023-03-20T10:46:10.485Z,70.06
2023-03-20T10:48:39.452Z,69.79
2023-03-20T10:51:16.716Z,69.21
2023-03-20T10:53:47.700Z,69.15
2023-03-20T10:56:20.083Z,68.51
2023-03-20T10:58:48.581Z,68.83
2023-03-20T11:01:15.235Z,68.50
2023-03-20T11:03:41.981Z,68.23
2023-03-20T11:06:21.886Z,67.72
2023-03-20T11:08:51.343Z,67.37
2023-03-20T11:11:26.537Z,66.96
2023-03-20T11:13:53.054Z,67.49
2023-03-20T11:16:25.225Z,68.23
2023-03-20T11:18:53.933Z,68.45
2023-03-20T11:21:23.858Z,68.03
2023-03-20T11:23:51.376Z,67.92
2023-03-20T11:26:20.890Z,68.48
2023-03-20T11:28:50.618Z,68.15
2023-03-20T11:31:20.477Z,68.22
2023-03-20T11:33:52.804Z,68.40
2023-03-20T11:36:30.546Z,69.03
2023-03-20T11:39:16.814Z,69.00
2023-03-20T11:41:54.598Z,68.33
2023-03-20T11:44:33.910Z,68.42
2023-03-20T11:47:08.005Z,68.51
2023-03-20T11:49:47.766Z,67.97
2023-03-20T11:52:15.749Z,67.98
2023-03-20T11:54:50.744Z,67.97
2023-03-20T11:57:36.859Z,67.87
2023-03-20T12:00:18.118Z,68.08
2023-03-20T12:02:44.998Z,68.05
2023-03-20T12:05:18.948Z,68.01
2023-03-20T12:07:46.915Z,67.95
2023-03-20T12:10:14.375Z,67.55
2023-03-20T12:12:45.762Z,67.46
2023-03-20T12:15:27.056Z,66.79
2023-03-20T12:18:01.388Z,65.76
2023-03-20T12:20:44.768Z,65.84
2023-03-20T12:23:35.784Z,66.01
2023-03-20T12:26:54.619Z,65.39
2023-03-20T12:29:31.575Z,65.04
2023-03-20T12:32:07.149Z,64.43
2023-03-20T12:34:47.089Z,63.85
2023-03-20T12:37:14.303Z,63.50
2023-03-20T12:39:48.804Z,63.74
2023-03-20T12:42:37.097Z,63.55
2023-03-20T12:45:22.173Z,62.93
2023-03-20T12:47:57.762Z,62.60
2023-03-20T12:50:38.449Z,62.58
2023-03-20T12:53:35.766Z,61.56
2023-03-20T12:56:25.798Z,61.58
2023-03-20T12:59:08.300Z,59.86
2023-03-20T13:01:53.540Z,60.03
2023-03-20T13:04:36.454Z,59.15
2023-03-20T13:07:07.637Z,58.82
2023-03-20T13:09:52.184Z,59.32
2023-03-20T13:12:21.696Z,58.47
2023-03-20T13:15:01.170Z,58.33
2023-03-20T13:17:38.671Z,58.01
2023-03-20T13:20:23.339Z,56.48
2023-03-20T13:23:27.572Z,56.80
2023-03-20T13:26:14.109Z,56.45
2023-03-20T13:28:56.081Z,55.83
2023-03-20T13:31:43.786Z,55.46
2023-03-20T13:34:21.524Z,55.24
2023-03-20T13:37:16.083Z,54.60
2023-03-20T13:39:58.794Z,54.68
2023-03-20T13:42:29.908Z,55.14
2023-03-20T13:45:01.721Z,53.93
2023-03-20T13:47:28.929Z,53.63
2023-03-20T13:50:22.845Z,53.89
2023-03-20T13:52:55.428Z,54.18
2023-03-20T13:55:53.055Z,55.07
2023-03-20T13:58:32.524Z,54.06
2023-03-20T14:01:04.851Z,53.17
2023-03-20T14:03:39.057Z,54.30
2023-03-20T14:06:39.362Z,54.41
2023-03-20T14:09:25.320Z,53.20
2023-03-20T14:11:53.930Z,53.00
2023-03-20T14:14:46.197Z,53.46
2023-03-20T14:17:20.921Z,53.28
2023-03-20T14:19:48.010Z,53.36
2023-03-20T14:22:16.951Z,53.48
2023-03-20T14:24:48.749Z,53.61
2023-03-20T14:27:29.844Z,52.23
2023-03-20T14:30:31.461Z,51.87
2023-03-20T14:33:00.389Z,51.67
2023-03-20T14:35:28.369Z,51.93
2023-03-20T14:38:14.023Z,51.33
2023-03-20T14:40:49.563Z,52.03
2023-03-20T14:43:26.520Z,52.61
2023-03-20T14:46:02.308Z,52.72
2023-03-20T14:48:35.672Z,52.61
2023-03-20T14:51:20.461Z,52.36
2023-03-20T14:54:14.095Z,52.37
2023-03-20T14:56:40.593Z,52.54
2023-03-20T14:59:10.970Z,52.82
2023-03-20T15:01:46.554Z,53.33
2023-03-20T15:04:18.974Z,53.25
2023-03-20T15:06:58.078Z,52.97
2023-03-20T15:09:27.039Z,52.55
2023-03-20T15:11:53.969Z,52.54
2023-03-20T15:14:25.329Z,52.02
2023-03-20T15:16:58.622Z,51.97
2023-03-20T15:19:25.418Z,52.44
2023-03-20T15:21:53.675Z,52.44
2023-03-20T15:24:25.520Z,52.03
2023-03-20T15:26:58.310Z,52.16
2023-03-20T15:29:24.966Z,51.87
2023-03-20T15:32:12.522Z,52.07
2023-03-20T15:34:41.060Z,52.39
2023-03-20T15:37:07.558Z,52.69
2023-03-20T15:39:43.441Z,53.08
2023-03-20T15:42:13.000Z,53.52
2023-03-20T15:44:41.762Z,53.17
2023-03-20T15:47:11.265Z,52.75
2023-03-20T15:49:42.644Z,52.42
2023-03-20T15:52:31.278Z,51.79
2023-03-20T15:54:59.276Z,51.31
2023-03-20T15:57:33.608Z,50.95
2023-03-20T16:00:02.244Z,51.41
2023-03-20T16:02:30.250Z,51.31
2023-03-20T16:04:57.032Z,51.26
2023-03-20T16:07:28.274Z,51.29
2023-03-20T16:09:55.011Z,51.10
2023-03-20T16:12:21.572Z,51.44
2023-03-20T16:14:49.388Z,51.30
2023-03-20T16:17:17.612Z,51.40
2023-03-20T16:19:45.006Z,51.51
2023-03-20T16:22:21.958Z,50.69
2023-03-20T16:24:51.758Z,50.16
2023-03-20T16:27:24.608Z,50.46
2023-03-20T16:29:52.449Z,50.85
2023-03-20T16:32:32.854Z,50.73
2023-03-20T16:35:01.414Z,50.14
2023-03-20T16:37:30.866Z,50.42
2023-03-20T16:40:16.699Z,50.32
2023-03-20T16:42:43.910Z,50.46
2023-03-20T16:45:22.506Z,51.00
2023-03-20T16:47:49.255Z,50.72
2023-03-20T16:50:23.257Z,51.25
2023-03-20T16:52:52.258Z,51.27
2023-03-20T16:55:32.446Z,51.03
2023-03-20T16:58:00.901Z,51.36
2023-03-20T17:00:30.994Z,51.43
2023-03-20T17:03:05.701Z,51.85
2023-03-20T17:05:56.915Z,51.99
2023-03-20T17:08:29.108Z,52.03
2023-03-20T17:11:00.897Z,52.34
2023-03-20T17:13:27.316Z,52.30
2023-03-20T17:15:54.256Z,52.52
2023-03-20T17:18:20.689Z,52.58
2023-03-20T17:20:47.103Z,53.01
2023-03-20T17:23:20.580Z,53.15
2023-03-20T17:25:49.015Z,53.25
2023-03-20T17:28:24.342Z,53.59
2023-03-20T17:30:51.372Z,53.81
2023-03-20T17:33:20.786Z,53.87
2023-03-20T17:35:47.883Z,53.86
2023-03-20T17:38:22.107Z,54.10
2023-03-20T17:40:49.583Z,54.09
2023-03-20T17:43:17.437Z,54.16
2023-03-20T17:45:44.579Z,54.13
2023-03-20T17:48:17.245Z,54.04
2023-03-20T17:50:45.113Z,54.14
2023-03-20T17:53:17.683Z,54.52
2023-03-20T17:55:44.411Z,54.70
2023-03-20T17:58:15.824Z,54.80
2023-03-20T18:00:42.579Z,54.87
2023-03-20T18:03:09.040Z,54.91
2023-03-20T18:05:39.375Z,55.08
2023-03-20T18:08:11.018Z,55.10
2023-03-20T18:10:37.966Z,55.48
2023-03-20T18:13:04.616Z,55.44
2023-03-20T18:15:31.164Z,55.64
2023-03-20T18:17:57.745Z,55.88
2023-03-20T18:20:30.886Z,55.92
2023-03-20T18:22:57.412Z,55.91
2023-03-20T18:25:25.935Z,56.42
2023-03-20T18:27:53.598Z,56.53
2023-03-20T18:30:23.013Z,56.85
2023-03-20T18:32:49.561Z,57.27
2023-03-20T18:35:16.397Z,57.56
2023-03-20T18:37:43.195Z,57.96
2023-03-20T18:40:26.166Z,58.38
2023-03-20T18:42:54.072Z,58.55
2023-03-20T18:45:21.813Z,58.68
2023-03-20T18:47:48.661Z,58.75
2023-03-20T18:50:19.785Z,58.79
2023-03-20T18:52:46.667Z,58.70
2023-03-20T18:55:13.127Z,58.76
2023-03-20T18:57:43.057Z,58.79
2023-03-20T19:00:39.932Z,59.02
2023-03-20T19:03:08.311Z,58.91
2023-03-20T19:05:36.022Z,58.94
2023-03-20T19:08:03.672Z,59.01
2023-03-20T19:10:39.296Z,59.14
2023-03-20T19:13:07.685Z,59.28
2023-03-20T19:15:36.375Z,59.32
2023-03-20T19:18:06.089Z,59.66
2023-03-20T19:20:39.890Z,59.40
2023-03-20T19:23:08.696Z,59.69
2023-03-20T19:25:36.314Z,59.81
2023-03-20T19:28:03.460Z,59.87
2023-03-20T19:30:40.702Z,59.68
2023-03-20T19:33:07.766Z,59.74
2023-03-20T19:38:22.181Z,60.37
2023-03-20T19:40:53.215Z,60.18
2023-03-20T19:43:23.282Z,60.34
2023-03-20T19:45:55.994Z,60.65
2023-03-20T19:48:27.207Z,61.16
2023-03-20T19:50:54.174Z,61.71
2023-03-20T19:53:27.961Z,61.89
2023-03-20T19:55:55.591Z,62.24
2023-03-20T19:58:22.454Z,62.95
2023-03-20T20:00:59.195Z,63.23
2023-03-20T20:03:26.636Z,63.33
2023-03-20T20:05:53.541Z,63.20
2023-03-20T20:08:30.037Z,63.60
2023-03-20T20:11:07.145Z,64.30
2023-03-20T20:13:43.854Z,64.31
2023-03-20T20:16:21.202Z,64.78
2023-03-20T20:18:49.788Z,64.51
2023-03-20T20:24:02.984Z,65.30
2023-03-20T20:26:31.384Z,65.28
2023-03-20T20:29:01.762Z,65.24
2023-03-20T20:31:31.841Z,65.53
2023-03-20T20:34:25.235Z,66.00
2023-03-20T20:39:31.709Z,66.12
2023-03-20T20:41:58.264Z,66.37
2023-03-20T20:44:24.804Z,66.75
2023-03-20T20:46:51.713Z,66.67
2023-03-20T20:49:20.271Z,66.89
2023-03-20T20:51:47.727Z,67.05
2023-03-20T20:54:14.668Z,67.11
2023-03-20T20:56:41.437Z,67.11
2023-03-20T20:59:08.043Z,66.83
2023-03-20T21:01:34.774Z,66.74
2023-03-20T21:04:02.346Z,66.28
2023-03-20T21:06:54.212Z,66.30
2023-03-20T21:09:15.419Z,66.03
2023-03-20T21:11:41.992Z,65.75
2023-03-20T21:14:08.882Z,65.49
2023-03-20T21:16:35.431Z,65.27
2023-03-20T21:19:07.670Z,65.27
2023-03-20T21:21:35.734Z,64.87
2023-03-20T21:24:02.520Z,64.57
2023-03-20T21:26:29.184Z,64.48
2023-03-20T21:28:55.721Z,64.64
2023-03-20T21:31:27.931Z,64.69
2023-03-20T21:33:56.607Z,64.70
2023-03-20T21:36:23.774Z,64.82
2023-03-20T21:39:08.651Z,64.83
2023-03-20T21:41:37.950Z,64.55
2023-03-20T21:44:07.666Z,64.52
2023-03-20T21:55:40.690Z,64.48
2023-03-20T22:03:40.000Z,65.20
2023-03-20T22:15:11.898Z,65.67
2023-03-20T22:20:42.247Z,66.00
2023-03-20T22:26:20.997Z,66.15
2023-03-20T22:31:50.796Z,66.83
2023-03-20T22:40:27.234Z,66.82
2023-03-20T22:42:49.616Z,67.01
2023-03-20T22:45:05.577Z,66.87
2023-03-20T22:47:32.403Z,67.21
2023-03-20T22:49:58.946Z,66.97
2023-03-20T22:52:38.003Z,67.37
2023-03-20T22:55:12.083Z,67.42
2023-03-20T22:57:45.693Z,67.22
2023-03-20T23:00:17.783Z,67.11
2023-03-20T23:02:44.730Z,67.59
2023-03-20T23:05:11.831Z,67.83
2023-03-20T23:07:38.658Z,67.83
2023-03-20T23:10:06.495Z,68.31
2023-03-20T23:12:33.434Z,68.88
2023-03-20T23:15:00.380Z,69.15
2023-03-20T23:17:27.201Z,69.04
2023-03-20T23:20:05.311Z,69.30
2023-03-20T23:22:38.323Z,69.39
2023-03-20T23:25:13.387Z,69.71
2023-03-20T23:27:44.995Z,69.63
2023-03-20T23:30:12.065Z,69.83
2023-03-20T23:32:39.815Z,70.06
2023-03-20T23:35:07.687Z,70.38
2023-03-20T23:37:34.921Z,70.41
2023-03-20T23:40:01.427Z,70.48
2023-03-20T23:42:30.931Z,70.65
2023-03-20T23:45:04.341Z,70.67
2023-03-20T23:47:44.880Z,70.68
2023-03-20T23:50:20.682Z,71.12
2023-03-20T23:53:01.054Z,70.81
2023-03-20T23:55:30.515Z,71.10
2023-03-20T23:57:57.073Z,71.36
